Time;durP1;ratioP1;P1;durP2;ratioP2;P2;SDS_P1;SDS_P2;PMS_P1;PMS_P2;Temp;Humidity;BMP_temperature;BMP_pressure;BME280_temperature;BME280_humidity;BME280_pressure;Samples;Min_cycle;Max_cycle;Signal;HPM_P1;HPM_P2
2021/11/01 00:01:04;;;;;;;23.27;11.57;;;;;;;10.68;100.00;97146.34;4964514;28;20065;-66
2021/11/01 00:03:31;;;;;;;20.90;11.18;;;;;;;10.82;100.00;97165.22;4964868;28;20065;-65
2021/11/01 00:05:58;;;;;;;25.20;12.50;;;;;;;10.82;100.00;97161.63;4965029;28;20051;-65
2021/11/01 00:08:25;;;;;;;22.70;12.15;;;;;;;10.62;100.00;97122.88;4963826;28;20093;-64
2021/11/01 00:10:52;;;;;;;23.65;13.50;;;;;;;10.46;100.00;97124.19;4965310;28;20142;-65
2021/11/01 00:13:19;;;;;;;28.83;12.70;;;;;;;10.15;100.00;97061.50;4966006;28;20058;-66
2021/11/01 00:15:46;;;;;;;26.70;13.50;;;;;;;10.98;100.00;97159.53;4968782;28;20410;-65
2021/11/01 00:18:12;;;;;;;25.45;12.63;;;;;;;11.02;100.00;97160.41;4968827;28;20047;-65
2021/11/01 00:20:39;;;;;;;30.52;13.63;;;;;;;11.00;100.00;97162.75;4968976;28;20055;-66
2021/11/01 00:23:06;;;;;;;27.40;12.55;;;;;;;10.78;100.00;97164.31;4966936;28;20062;-65
2021/11/01 00:25:33;;;;;;;29.20;13.43;;;;;;;10.95;100.00;97160.28;4968771;28;20070;-66
2021/11/01 00:28:00;;;;;;;24.80;13.60;;;;;;;10.94;100.00;97158.69;4967669;28;20567;-65
2021/11/01 00:30:27;;;;;;;29.42;13.82;;;;;;;10.98;100.00;97154.00;4969189;28;20430;-66
2021/11/01 00:32:54;;;;;;;28.20;13.07;;;;;;;11.10;100.00;97162.09;4968584;28;20050;-66
2021/11/01 00:35:21;;;;;;;26.00;13.13;;;;;;;11.08;100.00;97154.16;4968480;28;20589;-66
2021/11/01 00:37:48;;;;;;;29.25;13.63;;;;;;;11.13;100.00;97166.94;4968247;28;20054;-66
2021/11/01 00:40:15;;;;;;;29.92;14.85;;;;;;;10.67;100.00;97078.25;4968481;28;20055;-65
2021/11/01 00:42:42;;;;;;;29.52;13.30;;;;;;;10.64;100.00;97079.00;4966234;28;20098;-65
2021/11/01 00:45:09;;;;;;;27.05;13.40;;;;;;;11.15;100.00;97139.63;4968393;28;20051;-66
2021/11/01 00:47:35;;;;;;;30.70;13.63;;;;;;;11.17;100.00;97137.28;4968646;28;20055;-65
2021/11/01 00:50:04;;;;;;;32.40;15.07;;;;;;;11.16;100.00;97144.00;4968129;28;20055;-65
2021/11/01 00:52:31;;;;;;;32.72;14.60;;;;;;;11.19;100.00;97141.28;4966539;28;20085;-65
2021/11/01 00:55:06;;;;;;;24.73;12.30;;;;;;;10.72;100.00;97123.47;4968067;28;20065;-66
2021/11/01 00:57:33;;;;;;;29.67;13.00;;;;;;;11.17;100.00;97135.31;4967996;28;20065;-65
2021/11/01 01:00:01;;;;;;;30.35;14.10;;;;;;;11.15;100.00;97125.75;4966441;28;20055;-66
2021/11/01 01:02:33;;;;;;;28.08;12.98;;;;;;;11.15;100.00;97131.31;4967411;28;20084;-65
2021/11/01 01:05:04;;;;;;;27.03;14.27;;;;;;;11.18;100.00;97130.56;4967905;28;20055;-64
2021/11/01 01:07:31;;;;;;;28.77;14.25;;;;;;;11.21;100.00;97124.28;4968181;28;20145;-66
2021/11/01 01:09:58;;;;;;;27.05;13.32;;;;;;;11.19;100.00;97123.84;4967748;28;20182;-65
2021/11/01 01:12:25;;;;;;;27.75;14.30;;;;;;;10.43;100.00;96995.56;4967621;28;20053;-66
2021/11/01 01:15:03;;;;;;;29.90;14.68;;;;;;;10.99;100.00;97083.53;4966145;28;20054;-66
2021/11/01 01:17:31;;;;;;;29.55;14.98;;;;;;;11.22;100.00;97120.34;4967266;28;20518;-66
2021/11/01 01:20:07;;;;;;;29.75;14.63;;;;;;;11.22;100.00;97114.78;4966032;28;20050;-66
2021/11/01 01:22:34;;;;;;;27.90;13.52;;;;;;;11.12;100.00;97082.16;4967171;28;20069;-66
2021/11/01 01:25:18;;;;;;;33.63;14.88;;;;;;;11.24;100.00;97118.00;4965584;28;20150;-65
2021/11/01 01:27:46;;;;;;;33.35;15.65;;;;;;;11.11;100.00;97108.28;4966344;28;20130;-65
2021/11/01 01:30:14;;;;;;;29.00;13.23;;;;;;;11.15;100.00;97109.13;4965792;28;20321;-65
2021/11/01 01:32:43;;;;;;;24.90;13.07;;;;;;;11.14;100.00;97102.81;4967239;28;20061;-64
2021/11/01 01:35:11;;;;;;;26.08;13.13;;;;;;;11.02;100.00;97099.44;4967357;28;20051;-64
2021/11/01 01:37:38;;;;;;;22.02;11.18;;;;;;;11.00;100.00;97096.22;4965112;28;20070;-65
2021/11/01 01:40:07;;;;;;;25.15;12.23;;;;;;;10.98;100.00;97099.38;4967238;28;20558;-65
2021/11/01 01:42:36;;;;;;;25.05;12.27;;;;;;;10.63;100.00;97033.09;4965107;28;20062;-63
2021/11/01 01:45:05;;;;;;;22.52;11.20;;;;;;;10.97;100.00;97091.44;4966464;28;20154;-65
2021/11/01 01:47:31;;;;;;;25.70;12.63;;;;;;;11.03;100.00;97101.84;4965094;28;20062;-67
2021/11/01 01:49:58;;;;;;;26.98;11.90;;;;;;;10.95;100.00;97100.13;4964198;28;20086;-64
2021/11/01 01:52:26;;;;;;;17.98;9.50;;;;;;;10.57;100.00;97067.78;4965816;28;20057;-64
2021/11/01 01:54:52;;;;;;;19.40;9.80;;;;;;;10.75;100.00;97089.47;4964288;28;20050;-64
2021/11/01 01:57:19;;;;;;;17.38;9.77;;;;;;;10.18;100.00;97054.44;4964608;28;20042;-64
2021/11/01 01:59:46;;;;;;;18.92;10.13;;;;;;;10.47;100.00;97068.44;4965965;28;20077;-64
2021/11/01 02:02:13;;;;;;;20.42;9.60;;;;;;;10.59;100.00;97093.16;4965894;28;20076;-64
2021/11/01 02:04:41;;;;;;;20.00;9.45;;;;;;;10.53;100.00;97082.75;4965683;28;20156;-64
2021/11/01 02:07:13;;;;;;;16.83;10.00;;;;;;;10.68;100.00;97093.69;4965443;28;20441;-63
2021/11/01 02:09:49;;;;;;;19.73;10.32;;;;;;;10.75;100.00;97095.03;4965154;28;20047;-64
2021/11/01 02:12:19;;;;;;;20.98;10.10;;;;;;;10.33;100.00;97046.03;4965631;28;20055;-64
2021/11/01 02:14:50;;;;;;;27.67;12.13;;;;;;;10.72;100.00;97090.22;4965381;28;20054;-64
2021/11/01 02:17:38;;;;;;;18.88;8.95;;;;;;;10.70;100.00;97091.38;4965506;28;20050;-65
2021/11/01 02:20:12;;;;;;;21.95;10.43;;;;;;;10.71;100.00;97094.94;4964948;28;20054;-65
2021/11/01 02:22:41;;;;;;;;;;;;;;;10.72;100.00;97093.00;4965677;28;20525;-65
2021/11/01 02:25:15;;;;;;;23.50;10.05;;;;;;;10.66;100.00;97087.75;4965560;28;19926;-64
2021/11/01 02:27:44;;;;;;;30.85;10.73;;;;;;;10.70;100.00;97098.91;4964174;28;20115;-65
2021/11/01 02:30:11;;;;;;;20.98;10.82;;;;;;;10.68;100.00;97084.63;4963805;28;20051;-65
2021/11/01 02:32:43;;;;;;;21.38;10.73;;;;;;;10.54;100.00;97081.59;4965524;28;20054;-65
2021/11/01 02:35:11;;;;;;;21.23;9.95;;;;;;;10.03;100.00;97020.13;4963558;28;20414;-64
2021/11/01 02:37:43;;;;;;;28.13;12.48;;;;;;;8.40;100.00;96787.09;4963396;28;20096;-66
2021/11/01 02:40:10;;;;;;;22.00;10.30;;;;;;;9.94;100.00;97025.09;4965320;28;20521;-65
2021/11/01 02:42:38;;;;;;;17.52;10.05;;;;;;;10.14;100.00;97021.16;4925556;28;1177708;-65
2021/11/01 02:45:08;;;;;;;21.27;10.63;;;;;;;10.62;100.00;97078.56;4966461;28;20486;-66
2021/11/01 02:47:35;;;;;;;24.77;10.80;;;;;;;10.62;100.00;97066.72;4964628;28;20441;-66
2021/11/01 02:50:06;;;;;;;21.73;11.20;;;;;;;10.56;100.00;97032.97;4965804;28;20058;-66
2021/11/01 02:52:34;;;;;;;22.90;11.00;;;;;;;10.76;100.00;97071.69;4966071;28;20131;-66
2021/11/01 02:55:03;;;;;;;24.00;12.02;;;;;;;10.23;100.00;97021.72;4965548;28;20069;-66
2021/11/01 02:57:29;;;;;;;24.20;11.82;;;;;;;10.27;100.00;97017.06;4965884;28;20054;-66
2021/11/01 02:59:56;;;;;;;25.52;11.00;;;;;;;9.83;100.00;96946.63;4966144;28;20055;-64
2021/11/01 03:02:23;;;;;;;19.52;10.27;;;;;;;10.55;100.00;97059.06;4964337;28;20054;-66
2021/11/01 03:04:50;;;;;;;23.65;10.40;;;;;;;10.66;100.00;97071.13;4965764;28;20734;-65
2021/11/01 03:07:18;;;;;;;47.80;20.50;;;;;;;10.65;100.00;97080.59;4964138;28;20145;-66
2021/11/01 03:09:46;;;;;;;35.50;17.48;;;;;;;8.54;100.00;96734.94;4963925;28;20437;-66
2021/11/01 03:12:17;;;;;;;30.70;13.40;;;;;;;10.73;100.00;97064.91;4965509;28;20121;-66
2021/11/01 03:14:48;;;;;;;27.85;13.00;;;;;;;10.79;100.00;97068.16;4965473;28;20514;-64
2021/11/01 03:17:19;;;;;;;28.85;13.82;;;;;;;10.46;100.00;97019.72;4965386;28;20061;-65
2021/11/01 03:20:13;;;;;;;27.02;13.18;;;;;;;10.67;100.00;97060.84;4965581;28;20051;-66
2021/11/01 03:22:49;;;;;;;30.95;16.02;;;;;;;10.51;100.00;97024.97;4965143;28;20063;-66
2021/11/01 03:25:32;;;;;;;28.55;14.15;;;;;;;10.70;100.00;97063.66;4965095;28;20545;-65
2021/11/01 03:28:01;;;;;;;29.35;13.77;;;;;;;10.68;100.00;97041.06;4965422;28;20178;-66
2021/11/01 03:30:29;;;;;;;31.52;16.33;;;;;;;10.77;100.00;97054.69;4964849;28;20051;-66
2021/11/01 03:32:58;;;;;;;33.10;16.75;;;;;;;10.80;100.00;97055.91;4965522;28;20065;-66
2021/11/01 03:35:27;;;;;;;28.33;13.38;;;;;;;10.22;100.00;96967.53;4964962;28;20070;-66
2021/11/01 03:37:57;;;;;;;22.98;11.32;;;;;;;10.82;100.00;97050.78;4965513;28;20069;-66
2021/11/01 03:40:28;;;;;;;24.50;12.68;;;;;;;10.80;100.00;97048.41;4965266;28;20061;-65
2021/11/01 03:42:57;;;;;;;24.60;12.27;;;;;;;10.73;100.00;97043.53;4963549;28;20085;-65
2021/11/01 03:45:25;;;;;;;28.83;12.50;;;;;;;10.73;100.00;97043.53;4964998;28;20050;-65
2021/11/01 03:47:54;;;;;;;22.83;12.05;;;;;;;10.59;100.00;97023.91;4964701;28;20051;-66
2021/11/01 03:52:51;;;;;;;28.77;13.23;;;;;;;10.72;100.00;97032.03;4964881;28;20538;-66
2021/11/01 03:55:19;;;;;;;29.08;14.43;;;;;;;10.62;100.00;97037.03;4965131;28;20058;-65
2021/11/01 03:57:47;;;;;;;30.95;14.13;;;;;;;10.67;100.00;97033.94;4965758;28;20051;-65
2021/11/01 04:00:15;;;;;;;35.80;17.15;;;;;;;10.72;100.00;97032.03;4965080;28;20050;-65
2021/11/01 04:02:46;;;;;;;33.05;15.80;;;;;;;10.46;100.00;96994.03;4963721;28;20074;-66
2021/11/01 04:05:13;;;;;;;30.08;15.10;;;;;;;10.57;100.00;97029.03;4964573;28;20055;-65
2021/11/01 04:07:39;;;;;;;21.70;11.85;;;;;;;10.64;100.00;97031.91;4964672;28;20066;-66
2021/11/01 04:10:08;;;;;;;24.77;13.27;;;;;;;10.12;100.00;96946.00;4964326;28;20070;-65
2021/11/01 04:12:37;;;;;;;35.03;16.48;;;;;;;10.60;100.00;97020.00;4965122;28;20149;-64
2021/11/01 04:15:18;;;;;;;26.77;13.18;;;;;;;10.24;100.00;97009.47;4963446;28;20441;-64
2021/11/01 04:17:57;;;;;;;25.48;13.82;;;;;;;10.44;100.00;96985.28;4964815;28;20498;-65
2021/11/01 04:20:31;;;;;;;41.47;18.08;;;;;;;10.28;100.00;96977.13;4963051;28;20059;-65
2021/11/01 04:23:04;;;;;;;36.38;16.30;;;;;;;10.46;100.00;97003.13;4964906;28;20062;-65
2021/11/01 04:25:32;;;;;;;30.70;14.80;;;;;;;10.47;100.00;97001.97;4963020;28;20055;-65
2021/11/01 04:28:01;;;;;;;33.78;15.60;;;;;;;10.30;100.00;96969.25;4964847;28;20061;-65
2021/11/01 04:30:34;;;;;;;37.45;16.58;;;;;;;10.52;100.00;96998.88;4964676;28;20153;-65
2021/11/01 04:33:04;;;;;;;34.65;15.98;;;;;;;10.44;100.00;96980.56;4965065;28;20059;-65
2021/11/01 04:35:35;;;;;;;35.28;14.68;;;;;;;10.53;100.00;96994.94;4964249;28;20059;-65
2021/11/01 04:54:03;;;;;;;33.22;16.90;;;;;;;10.38;100.00;96993.13;4964955;28;20059;-64
2021/11/01 04:56:30;;;;;;;33.30;16.05;;;;;;;10.07;100.00;96960.13;4964063;28;20113;-65
2021/11/01 04:58:58;;;;;;;36.65;17.30;;;;;;;9.81;100.00;96932.38;4964615;28;20051;-65
2021/11/01 05:01:48;;;;;;;42.03;19.98;;;;;;;10.16;100.00;96991.13;4967754;28;20065;-65
2021/11/01 05:04:20;;;;;;;75.15;37.30;;;;;;;10.12;100.00;96992.22;4967636;28;20059;-65
2021/11/01 05:06:52;;;;;;;51.95;26.67;;;;;;;10.10;100.00;96992.59;4966882;28;20066;-64
2021/11/01 05:09:29;;;;;;;35.75;17.15;;;;;;;10.11;100.00;96993.41;4967573;28;20043;-65
2021/11/01 05:14:57;;;;;;;29.30;13.48;;;;;;;9.33;100.00;96874.97;4971529;28;20069;-65
2021/11/01 05:22:31;;;;;;;55.50;25.02;;;;;;;10.21;100.00;96993.59;4967552;28;20438;-65
2021/11/01 05:25:02;;;;;;;52.20;23.90;;;;;;;10.23;100.00;96996.78;4968015;28;20521;-66
2021/11/01 05:35:41;;;;;;;39.13;20.90;;;;;;;10.44;100.00;96991.63;4967012;28;20051;-65
2021/11/01 05:38:08;;;;;;;29.63;16.10;;;;;;;10.57;100.00;96990.25;4965858;28;20046;-65
2021/11/01 05:40:35;;;;;;;34.72;15.57;;;;;;;10.21;100.00;96943.75;4964992;28;20520;-65
2021/11/01 05:43:03;;;;;;;36.17;16.55;;;;;;;10.55;100.00;97000.91;4964846;28;20548;-65
2021/11/01 05:45:30;;;;;;;49.58;23.58;;;;;;;10.53;100.00;96989.41;4967436;28;20062;-65
2021/11/01 05:47:58;;;;;;;68.30;28.65;;;;;;;10.61;100.00;96993.88;4967256;28;20841;-66
2021/11/01 05:50:28;;;;;;;57.38;26.15;;;;;;;10.29;100.00;96945.47;4966931;28;20062;-65
2021/11/01 05:52:56;;;;;;;59.00;24.48;;;;;;;10.72;100.00;97001.56;4966727;28;20064;-66
2021/11/01 05:58:09;;;;;;;40.78;21.75;;;;;;;10.89;100.00;97004.59;4966844;28;20051;-66
2021/11/01 06:03:11;;;;;;;33.22;17.77;;;;;;;10.95;100.00;96999.53;4967166;28;20477;-65
2021/11/01 06:13:32;;;;;;;28.83;14.52;;;;;;;11.07;99.87;97013.16;4966900;28;20135;-65
2021/11/01 06:16:02;;;;;;;33.28;16.33;;;;;;;11.11;99.67;97014.03;4966745;28;20299;-64
2021/11/01 06:18:40;;;;;;;36.75;15.52;;;;;;;11.26;99.69;97010.28;4964967;28;20050;-64
2021/11/01 06:21:14;;;;;;;31.08;15.93;;;;;;;11.24;98.66;97004.31;4966763;28;20061;-65
2021/11/01 06:23:52;;;;;;;28.17;14.10;;;;;;;11.30;98.38;97011.13;4966674;28;20706;-64
2021/11/01 06:26:20;;;;;;;24.92;13.05;;;;;;;11.08;99.12;96959.34;4966211;28;20057;-63
2021/11/01 06:28:52;;;;;;;25.15;12.13;;;;;;;11.41;99.28;97010.06;4965805;28;20067;-65
2021/11/01 06:31:33;;;;;;;26.63;13.45;;;;;;;11.45;99.14;97004.59;4966057;28;20054;-64
2021/11/01 06:34:38;;;;;;;26.63;12.73;;;;;;;10.93;100.00;96929.81;4965857;28;20050;-64
2021/11/01 06:58:34;;;;;;;30.33;15.93;;;;;;;12.26;92.97;96975.78;4963725;28;20456;-66
2021/11/01 07:14:53;;;;;;;26.95;12.85;;;;;;;12.94;85.97;96989.03;4965259;28;20136;-66
2021/11/01 07:20:05;;;;;;;32.08;14.75;;;;;;;12.86;84.39;96943.72;4963323;28;20053;-65
2021/11/01 07:26:03;;;;;;;29.02;14.30;;;;;;;13.09;81.23;96915.66;4962335;28;20062;-63
2021/11/01 09:25:10;;;;;;;22.58;10.75;;;;;;;15.40;69.29;96889.16;4964658;28;20171;-65
2021/11/01 09:27:39;;;;;;;20.65;11.35;;;;;;;15.10;69.54;96892.44;4965785;28;20051;-65
2021/11/01 09:35:51;;;;;;;19.50;10.05;;;;;;;14.41;70.42;96782.69;4966309;28;20065;-60
2021/11/01 09:38:19;;;;;;;19.88;9.40;;;;;;;15.34;68.90;96902.72;4966849;28;20055;-59
2021/11/01 09:40:56;;;;;;;16.92;9.68;;;;;;;15.09;69.74;96829.47;4951220;28;20051;-62
2021/11/01 09:43:25;;;;;;;19.50;11.10;;;;;;;15.53;67.41;96865.97;4959608;28;20059;-65
2021/11/01 09:45:56;;;;;;;19.17;10.32;;;;;;;15.59;66.78;96842.00;4965824;28;20146;-61
2021/11/01 09:48:24;;;;;;;22.55;11.35;;;;;;;15.19;67.46;96795.94;4962566;28;20442;-64
2021/11/01 09:50:51;;;;;;;21.38;11.05;;;;;;;15.81;67.89;96888.16;4965089;28;20050;-65
2021/11/01 09:53:24;;;;;;;22.42;11.68;;;;;;;14.32;73.44;96902.91;4966742;28;20057;-60
2021/11/01 10:01:17;;;;;;;24.38;11.38;;;;;;;14.59;72.11;96789.03;4965154;28;20066;-64
2021/11/01 10:03:47;;;;;;;23.95;11.57;;;;;;;15.47;70.47;96875.97;4964132;28;20058;-65
2021/11/01 10:06:18;;;;;;;21.83;10.90;;;;;;;14.95;70.05;96757.78;4964094;28;20062;-62
2021/11/01 10:09:00;;;;;;;25.90;11.32;;;;;;;15.76;70.12;96863.44;4964118;28;20142;-65
2021/11/01 10:11:30;;;;;;;22.65;11.00;;;;;;;15.93;68.48;96861.75;4964094;28;20139;-65
2021/11/01 10:14:01;;;;;;;17.73;9.65;;;;;;;15.77;67.00;96820.38;4964809;28;20575;-64
2021/11/01 10:19:31;;;;;;;21.10;10.63;;;;;;;16.38;65.78;96827.84;4963051;28;20062;-65
2021/11/01 10:22:05;;;;;;;19.60;10.00;;;;;;;16.63;65.29;96854.81;4962850;28;20069;-62
2021/11/01 10:24:40;;;;;;;;;;;;;;;16.86;63.94;96835.38;4966249;28;20357;-66
2021/11/01 10:27:13;;;;;;;20.70;10.27;;;;;;;16.00;64.25;96694.84;4965938;28;19929;-62
2021/11/01 10:29:53;;;;;;;18.83;9.80;;;;;;;17.17;63.52;96823.03;4966782;28;20050;-64
2021/11/01 10:32:33;;;;;;;22.45;10.88;;;;;;;17.22;62.51;96820.56;4964994;28;20058;-62
2021/11/01 10:35:10;;;;;;;17.05;9.13;;;;;;;16.64;61.02;96717.34;4962541;28;20061;-62
2021/11/01 10:37:37;;;;;;;18.00;10.73;;;;;;;16.74;60.98;96743.63;4944904;29;20066;-63
2021/11/01 10:40:08;;;;;;;20.15;10.10;;;;;;;15.80;64.09;96752.50;4953834;28;20059;-63
2021/11/01 10:42:43;;;;;;;16.65;8.75;;;;;;;15.41;66.13;96767.94;4948106;28;20066;-62
2021/11/01 10:45:50;;;;;;;38.03;11.73;;;;;;;15.46;66.77;96715.25;4944868;28;20593;-63
2021/11/01 10:56:32;;;;;;;34.45;14.35;;;;;;;15.95;65.08;96692.50;4941794;28;20047;-61
2021/11/01 11:13:14;;;;;;;22.38;10.77;;;;;;;17.01;63.22;96720.06;4941631;28;20074;-61
2021/11/01 11:15:42;;;;;;;22.77;12.45;;;;;;;17.15;61.82;96731.06;4923921;29;20070;-64
2021/11/01 11:18:35;;;;;;;23.45;12.43;;;;;;;17.22;61.16;96724.59;4930917;28;20062;-66
2021/11/01 11:49:23;;;;;;;21.85;10.77;;;;;;;17.31;62.36;96727.69;4963431;28;20097;-64
2021/11/01 11:51:56;;;;;;;13.35;8.50;;;;;;;17.09;62.37;96731.94;4945225;28;20578;-69
2021/11/01 11:54:38;;;;;;;20.23;8.80;;;;;;;17.00;64.23;96721.28;4962314;28;20450;-64
2021/11/01 11:57:17;;;;;;;18.55;9.77;;;;;;;17.22;64.06;96707.78;4962629;28;20054;-63
2021/11/01 11:59:47;;;;;;;15.02;9.15;;;;;;;17.68;61.18;96719.94;4957050;28;20054;-63
2021/11/01 12:02:15;;;;;;;17.00;9.30;;;;;;;17.45;61.02;96705.09;4954630;28;20300;-65
2021/11/01 12:04:47;;;;;;;17.60;9.13;;;;;;;15.58;64.32;96566.00;4944988;28;20059;-66
2021/11/01 12:07:15;;;;;;;18.80;9.45;;;;;;;16.88;64.45;96704.28;4944655;29;20428;-67
2021/11/01 12:09:58;;;;;;;15.80;8.77;;;;;;;17.13;63.96;96715.91;4948247;28;20054;-67
2021/11/01 12:13:05;;;;;;;16.95;9.23;;;;;;;15.32;65.64;96542.31;4947553;29;20478;-67
2021/11/01 12:18:03;;;;;;;19.15;10.77;;;;;;;16.56;66.80;96694.28;4949039;28;20287;-68
2021/11/01 12:20:30;;;;;;;21.98;9.55;;;;;;;16.97;65.80;96712.94;4948568;28;20460;-66
2021/11/01 12:23:03;;;;;;;20.45;10.88;;;;;;;14.01;65.49;96243.66;4947148;29;20066;-66
2021/11/01 12:25:39;;;;;;;22.50;10.88;;;;;;;16.71;65.02;96654.94;4947478;28;20059;-63
2021/11/01 12:28:16;;;;;;;22.48;11.98;;;;;;;17.27;63.95;96710.91;4967062;28;20054;-62
2021/11/01 12:30:46;;;;;;;19.98;10.80;;;;;;;15.38;63.61;96422.66;4966373;28;20113;-65
2021/11/01 12:33:14;;;;;;;19.02;10.00;;;;;;;16.75;63.83;96594.16;4965101;28;20082;-62
2021/11/01 12:35:49;;;;;;;22.65;11.75;;;;;;;16.92;63.29;96643.44;4964477;28;20495;-62
2021/11/01 12:38:21;;;;;;;19.08;9.13;;;;;;;17.60;62.39;96695.25;4968160;28;20720;-65
2021/11/01 12:40:54;;;;;;;20.20;8.95;;;;;;;17.67;61.95;96697.94;4967687;28;20057;-68
2021/11/01 12:57:18;;;;;;;22.05;11.32;;;;;;;16.63;64.37;96587.09;4948103;28;20047;-67
2021/11/01 12:59:48;;;;;;;24.25;12.50;;;;;;;17.09;63.97;96687.16;4948210;28;20082;-62
2021/11/01 13:02:25;;;;;;;22.67;10.90;;;;;;;17.08;63.26;96685.59;4948249;28;20062;-64
2021/11/01 13:04:53;;;;;;;21.27;10.55;;;;;;;17.02;63.84;96690.09;4946292;29;20055;-65
2021/11/01 13:22:20;;;;;;;21.45;10.07;;;;;;;16.80;64.53;96672.81;4962920;28;20090;-64
2021/11/01 13:38:39;;;;;;;30.40;14.07;;;;;;;16.52;67.20;96665.56;4967924;28;20054;-66
2021/11/01 13:41:21;;;;;;;30.75;15.65;;;;;;;16.11;67.69;96611.72;4962594;28;20046;-67
2021/11/01 13:43:50;;;;;;;28.55;13.57;;;;;;;16.59;67.85;96692.66;4963415;28;20062;-66
2021/11/01 13:46:27;;;;;;;29.38;12.68;;;;;;;16.43;67.34;96651.25;4959831;28;20525;-67
2021/11/01 13:48:58;;;;;;;26.00;12.93;;;;;;;16.81;67.31;96677.19;4965957;28;20109;-62
2021/11/01 13:51:30;;;;;;;26.98;12.95;;;;;;;16.83;67.15;96674.75;4965128;28;20815;-61
2021/11/01 13:54:15;;;;;;;28.52;13.55;;;;;;;16.31;67.25;96604.28;4959579;28;20129;-65
2021/11/01 13:56:49;;;;;;;28.77;14.13;;;;;;;15.88;66.97;96544.53;4960495;28;20573;-61
2021/11/01 14:13:55;;;;;;;20.20;10.85;;;;;;;16.59;67.68;96673.88;4960322;28;20046;-62
2021/11/01 14:18:51;;;;;;;19.65;10.70;;;;;;;16.25;69.21;96678.63;4965063;28;20064;-63
2021/11/01 15:18:07;;;;;;;34.03;15.80;;;;;;;14.76;78.47;96676.63;4946254;28;20051;-67
2021/11/01 15:26:18;;;;;;;67.25;29.35;;;;;;;14.49;79.93;96667.19;4946138;28;20062;-66
2021/11/01 16:16:08;;;;;;;39.58;21.42;;;;;;;13.31;89.03;96698.41;4964935;28;20078;-68
2021/11/01 16:18:10;;;;;;;41.30;19.08;;;;;;;12.97;88.80;96638.75;4964972;28;20065;-68
2021/11/01 16:20:36;;;;;;;;;;;;;;;13.35;88.71;96696.44;4964915;28;20058;-65
2021/11/01 16:25:39;;;;;;;54.25;26.52;;;;;;;12.83;88.64;96633.19;4964466;28;20438;-67
2021/11/01 16:28:06;;;;;;;60.85;29.15;;;;;;;12.90;88.46;96641.50;4963567;28;20077;-67
2021/11/01 16:30:34;;;;;;;80.53;35.35;;;;;;;13.36;88.46;96699.97;4964686;28;20162;-67
2021/11/01 16:33:06;;;;;;;73.13;30.67;;;;;;;13.35;88.14;96704.78;4963609;28;20055;-68
2021/11/01 16:35:44;;;;;;;75.32;31.77;;;;;;;13.40;87.89;96707.13;4964642;28;20059;-68
2021/11/01 16:38:24;;;;;;;67.15;31.52;;;;;;;13.07;87.74;96660.22;4964495;28;20246;-70
2021/11/01 16:40:52;;;;;;;57.60;29.15;;;;;;;13.30;87.20;96685.69;4964176;28;20058;-68
2021/11/01 16:43:20;;;;;;;54.05;27.42;;;;;;;13.36;87.21;96706.34;4963022;28;20069;-67
2021/11/01 16:45:50;;;;;;;53.22;25.60;;;;;;;13.45;86.76;96712.31;4962796;28;20458;-66
2021/11/01 16:48:21;;;;;;;76.50;37.08;;;;;;;13.43;86.85;96711.94;4964703;28;20047;-67
2021/11/01 16:50:52;;;;;;;75.57;42.92;;;;;;;13.48;86.56;96719.88;4964583;28;20062;-69
2021/11/01 16:53:20;;;;;;;63.63;32.30;;;;;;;13.44;86.92;96724.66;4964728;28;20532;-69
2021/11/01 16:55:50;;;;;;;69.40;33.28;;;;;;;13.23;87.28;96724.63;4965946;28;20061;-68
2021/11/01 16:58:23;;;;;;;71.40;35.65;;;;;;;13.25;88.21;96725.03;4968519;28;20125;-67
2021/11/01 17:00:59;;;;;;;67.00;31.52;;;;;;;13.27;88.01;96719.88;4966231;28;20329;-68
2021/11/01 17:25:03;;;;;;;53.40;25.30;;;;;;;13.09;89.15;96741.28;4967889;28;20055;-68
2021/11/01 17:27:56;;;;;;;53.75;26.45;;;;;;;13.12;89.07;96743.28;4967961;28;20039;-67
2021/11/01 17:36:15;;;;;;;75.97;34.55;;;;;;;12.23;89.13;96589.75;4967494;28;20506;-66
2021/11/01 18:45:48;;;;;;;45.17;21.08;;;;;;;10.89;95.65;96754.41;4966127;28;20142;-67
2021/11/01 18:51:08;;;;;;;47.05;21.77;;;;;;;10.70;96.02;96778.34;4966065;28;20047;-68
2021/11/01 18:53:35;;;;;;;49.00;21.90;;;;;;;10.53;96.99;96765.06;4966172;28;20088;-68
2021/11/01 18:56:04;;;;;;;51.22;20.92;;;;;;;10.28;99.22;96779.75;4965786;28;20446;-68
2021/11/01 18:58:33;;;;;;;54.13;20.83;;;;;;;10.15;99.66;96757.06;4965938;28;20054;-67
2021/11/01 19:01:05;;;;;;;58.08;21.27;;;;;;;10.14;100.00;96766.53;4965639;28;20366;-68
2021/11/01 19:03:38;;;;;;;56.53;23.05;;;;;;;10.06;100.00;96764.81;4965993;28;20592;-67
2021/11/01 20:04:11;;;;;;;56.40;24.00;;;;;;;8.98;100.00;96717.63;4964734;28;20058;-69
2021/11/01 20:15:22;;;;;;;46.00;18.33;;;;;;;8.82;100.00;96722.47;4964786;28;20465;-68
2021/11/01 21:26:59;;;;;;;45.90;19.98;;;;;;;9.47;100.00;96698.31;4967824;28;20495;-67
2021/11/01 21:29:27;;;;;;;58.10;23.27;;;;;;;9.97;100.00;96750.44;4966795;28;20057;-68
2021/11/01 21:31:54;;;;;;;65.13;24.73;;;;;;;10.06;100.00;96753.75;4968013;28;20438;-67
2021/11/01 21:34:31;;;;;;;51.45;19.40;;;;;;;9.93;100.00;96713.63;4966293;28;20062;-67
2021/11/01 21:36:58;;;;;;;51.03;21.40;;;;;;;10.20;100.00;96737.34;4967708;28;20058;-68
2021/11/01 21:39:25;;;;;;;53.30;21.60;;;;;;;10.04;100.00;96720.09;4966241;28;20150;-67
2021/11/01 21:41:52;;;;;;;45.67;19.02;;;;;;;10.29;100.00;96740.63;4966409;28;20057;-68
2021/11/01 21:44:19;;;;;;;45.15;19.20;;;;;;;9.54;100.00;96637.59;4967087;28;20518;-68
2021/11/01 21:46:46;;;;;;;40.40;17.90;;;;;;;10.24;100.00;96734.63;4966910;28;20422;-68
2021/11/01 21:49:13;;;;;;;40.85;18.67;;;;;;;10.09;99.95;96674.72;4967777;28;20518;-68
2021/11/01 21:51:41;;;;;;;49.00;19.20;;;;;;;10.55;99.69;96732.28;4967516;28;20062;-68
2021/11/01 21:56:41;;;;;;;44.78;19.02;;;;;;;10.38;99.19;96683.03;4966844;28;20498;-67
2021/11/01 21:59:21;;;;;;;44.72;19.63;;;;;;;10.11;99.55;96640.00;4967120;28;20084;-68
2021/11/01 22:21:23;;;;;;;48.05;20.58;;;;;;;10.37;100.00;96698.03;4980427;28;20066;-68
2021/11/01 22:40:18;;;;;;;48.13;20.42;;;;;;;8.56;99.40;96343.41;4966510;28;20062;-68
2021/11/01 22:43:04;;;;;;;53.75;21.45;;;;;;;10.17;99.34;96577.59;4966880;28;20054;-67
2021/11/01 22:56:38;;;;;;;54.13;21.52;;;;;;;10.87;98.84;96704.13;4965661;28;20145;-68
2021/11/01 22:59:05;;;;;;;45.50;19.00;;;;;;;10.82;99.17;96657.34;4966252;28;20069;-67
2021/11/01 23:01:39;;;;;;;39.17;18.52;;;;;;;10.81;99.29;96653.81;4965832;28;20050;-68
2021/11/01 23:04:23;;;;;;;51.55;21.63;;;;;;;10.58;99.80;96612.44;4964945;28;20195;-67
2021/11/01 23:31:36;;;;;;;41.95;19.58;;;;;;;10.99;99.29;96626.25;4965068;28;20077;-66
2021/11/01 23:34:12;;;;;;;42.25;17.98;;;;;;;11.09;99.12;96618.03;4965375;28;20046;-67
2021/11/01 23:36:42;;;;;;;45.55;18.05;;;;;;;11.19;97.74;96616.53;4964753;28;20055;-67
2021/11/01 23:39:11;;;;;;;43.83;18.23;;;;;;;11.22;97.57;96615.75;4965723;28;20054;-67
2021/11/01 23:41:43;;;;;;;45.42;18.95;;;;;;;11.17;98.26;96613.34;4965108;28;20074;-67
2021/11/01 23:44:11;;;;;;;38.80;16.60;;;;;;;11.07;97.76;96586.31;4964944;28;20069;-66
2021/11/01 23:46:38;;;;;;;38.63;16.23;;;;;;;11.17;98.20;96614.13;4964756;28;20065;-67
2021/11/01 23:49:05;;;;;;;41.53;18.27;;;;;;;11.24;97.70;96613.41;4963557;28;20137;-66
2021/11/01 23:51:36;;;;;;;41.17;17.80;;;;;;;10.86;97.53;96541.84;4964696;28;20051;-66
2021/11/01 23:56:48;;;;;;;39.42;17.40;;;;;;;11.26;97.22;96600.72;4965419;28;20051;-66
2021/11/01 23:59:15;;;;;;;37.92;17.05;;;;;;;11.25;98.13;96598.34;4964351;28;20050;-66
